This is the latest recevied weather packets stored in our database for station/object WV8BRW. If no packets are shown the sender has not sent any weather packets the latest 10 day(s).
| Time | Temp. | Humidity | Pressure | Rain* | Wind** | Luminosity | Snow |
|---|---|---|---|---|---|---|---|
| 1777934481 | 24.44° C | 56% | 1006.6 hPa | 0 mm | - | 131 W/m² | - |
| 1777934178 | 24.44° C | 56% | 1006.8 hPa | 0 mm | - | 134 W/m² | - |
| 1777933874 | 24.44° C | 56% | 1006.8 hPa | 0 mm | - | 134 W/m² | - |
| 1777933571 | 24.44° C | 55% | 1006.7 hPa | 0 mm | - | 177 W/m² | - |
| 1777933268 | 24.44° C | 54% | 1006.9 hPa | 0 mm | - | 190 W/m² | - |
| 1777932965 | 23.89° C | 56% | 1006.9 hPa | 0 mm | - | 210 W/m² | - |
| 1777932662 | 23.89° C | 56% | 1007 hPa | 0 mm | - | 162 W/m² | - |
| 1777932358 | 24.44° C | 61% | 1006.9 hPa | 0 mm | - | 117 W/m² | - |
| 1777932056 | 25° C | 52% | 1006.9 hPa | 0 mm | - | 237 W/m² | - |
| 1777931752 | 25° C | 53% | 1007.2 hPa | 0 mm | - | 192 W/m² | - |
| 1777931450 | 25.56° C | 49% | 1006.9 hPa | 0 mm | - | 262 W/m² | - |
| 1777931145 | 25.56° C | 51% | 1007.1 hPa | 0 mm | - | 383 W/m² | - |
| 1777930842 | 25.56° C | 56% | 1007 hPa | 0 mm | - | 280 W/m² | - |
| 1777930538 | 25.56° C | 55% | 1007 hPa | 0 mm | - | 496 W/m² | - |
| 1777930236 | 25.56° C | 54% | 1006.9 hPa | 0 mm | - | 500 W/m² | - |
| 1777929931 | 24.44° C | 56% | 1007.4 hPa | 0 mm | - | 534 W/m² | - |
| 1777929629 | 25° C | 59% | 1007.2 hPa | 0 mm | - | 193 W/m² | - |
| 1777929326 | 24.44° C | 60% | 1007.5 hPa | 0 mm | - | 471 W/m² | - |
| 1777929023 | 25.56° C | 56% | 1007.3 hPa | 0 mm | - | 184 W/m² | - |
| 1777928720 | 25.56° C | 53% | 1007.4 hPa | 0 mm | - | 196 W/m² | - |
| 1777928416 | 25.56° C | 54% | 1007.5 hPa | 0 mm | - | 593 W/m² | - |
| 1777928115 | 25.56° C | 52% | 1007.5 hPa | 0 mm | - | 630 W/m² | - |
| 1777927812 | 25° C | 57% | 1007.6 hPa | 0 mm | - | 668 W/m² | - |
| 1777927510 | 24.44° C | 55% | 1007.6 hPa | 0 mm | - | 634 W/m² | - |
| 1777927209 | 23.89° C | 56% | 1007.7 hPa | 0 mm | - | 718 W/m² | - |
* Rain latest hour (hover to see other rain measurements)
** Current wind speed in m/s (hover to see current wind gust speed)